createdAt,value
2018-06-07T00:00:46.463Z,14.14
2018-06-07T00:03:14.858Z,14.12
2018-06-07T00:05:43.231Z,14.09
2018-06-07T00:08:11.622Z,14.07
2018-06-07T00:10:39.994Z,14.02
2018-06-07T00:13:08.394Z,13.99
2018-06-07T00:15:36.767Z,13.98
2018-06-07T00:18:05.162Z,13.96
2018-06-07T00:20:33.533Z,13.91
2018-06-07T00:23:01.919Z,13.85
2018-06-07T00:25:30.291Z,13.81
2018-06-07T00:27:58.692Z,13.77
2018-06-07T00:30:27.075Z,13.74
2018-06-07T00:32:55.478Z,13.73
2018-06-07T00:35:23.854Z,13.67
2018-06-07T00:37:52.258Z,13.63
2018-06-07T00:40:20.639Z,13.56
2018-06-07T00:42:49.026Z,13.40
2018-06-07T00:45:17.398Z,13.46
2018-06-07T00:47:45.791Z,13.42
2018-06-07T00:50:14.167Z,13.38
2018-06-07T00:52:42.584Z,13.36
2018-06-07T00:55:10.959Z,13.32
2018-06-07T00:57:39.345Z,13.27
2018-06-07T01:00:07.774Z,13.25
2018-06-07T01:02:36.138Z,13.21
2018-06-07T01:05:04.801Z,13.18
2018-06-07T01:07:33.171Z,13.15
2018-06-07T01:10:01.563Z,13.14
2018-06-07T01:12:30.546Z,13.14
2018-06-07T01:14:58.931Z,13.12
2018-06-07T01:17:27.324Z,13.10
2018-06-07T01:19:55.720Z,13.08
2018-06-07T01:22:24.088Z,13.07
2018-06-07T01:24:52.486Z,13.06
2018-06-07T01:27:20.875Z,13.03
2018-06-07T01:30:00.752Z,13.02
2018-06-07T01:32:57.442Z,13.01
2018-06-07T01:35:25.841Z,12.98
2018-06-07T01:38:05.601Z,12.98
2018-06-07T01:40:34.004Z,12.95
2018-06-07T01:43:02.370Z,12.92
2018-06-07T01:45:30.763Z,12.90
2018-06-07T01:47:59.138Z,12.87
2018-06-07T01:50:27.538Z,12.84
2018-06-07T01:52:55.911Z,12.81
2018-06-07T01:55:24.302Z,12.79
2018-06-07T01:57:52.671Z,12.77
2018-06-07T02:00:21.089Z,12.75
2018-06-07T02:02:49.467Z,12.74
2018-06-07T02:05:17.879Z,12.73
2018-06-07T02:07:46.246Z,12.71
2018-06-07T02:10:14.614Z,12.69
2018-06-07T02:12:43.011Z,12.68
2018-06-07T02:15:11.386Z,12.66
2018-06-07T02:17:39.774Z,12.65
2018-06-07T02:20:08.219Z,12.63
2018-06-07T02:22:36.650Z,12.60
2018-06-07T02:25:05.351Z,12.58
2018-06-07T02:27:33.747Z,12.54
2018-06-07T02:30:02.123Z,12.50
2018-06-07T02:32:30.518Z,12.47
2018-06-07T02:34:58.892Z,12.45
2018-06-07T02:37:27.303Z,12.41
2018-06-07T02:39:55.679Z,12.38
2018-06-07T02:42:24.071Z,12.36
2018-06-07T02:44:52.443Z,12.36
2018-06-07T02:47:20.847Z,12.35
2018-06-07T02:49:49.215Z,12.34
2018-06-07T02:52:17.626Z,12.33
2018-06-07T02:54:45.998Z,12.33
2018-06-07T02:57:14.378Z,12.33
2018-06-07T02:59:42.798Z,12.33
2018-06-07T03:02:11.178Z,12.31
2018-06-07T03:04:39.579Z,12.30
2018-06-07T03:07:07.955Z,12.30
2018-06-07T03:09:36.347Z,12.29
2018-06-07T03:12:04.737Z,12.28
2018-06-07T03:14:33.130Z,12.27
2018-06-07T03:17:01.506Z,12.24
2018-06-07T03:19:29.894Z,12.23
2018-06-07T03:21:58.271Z,12.22
2018-06-07T03:24:26.670Z,12.22
2018-06-07T03:26:55.087Z,12.21
2018-06-07T03:29:23.499Z,12.21
2018-06-07T03:31:51.874Z,12.21
2018-06-07T03:34:20.327Z,12.22
2018-06-07T03:36:48.695Z,12.23
2018-06-07T03:39:17.106Z,12.26
2018-06-07T03:41:45.487Z,12.29
2018-06-07T03:44:13.850Z,12.30
2018-06-07T03:46:42.254Z,12.32
2018-06-07T03:49:10.618Z,12.35
2018-06-07T03:51:39.011Z,12.37
2018-06-07T03:54:07.383Z,12.53
2018-06-07T03:56:35.785Z,12.88
2018-06-07T03:59:05.247Z,13.26
2018-06-07T04:01:33.673Z,13.70
2018-06-07T04:04:02.043Z,14.16
2018-06-07T04:06:30.435Z,14.62
2018-06-07T04:08:58.810Z,15.07
2018-06-07T04:11:27.215Z,15.51
2018-06-07T04:13:55.589Z,15.92
2018-06-07T04:16:23.982Z,16.31
2018-06-07T04:18:52.356Z,16.65
2018-06-07T04:21:20.750Z,16.95
2018-06-07T04:23:49.146Z,17.22
2018-06-07T04:26:17.511Z,17.41
2018-06-07T04:28:45.902Z,17.58
2018-06-07T04:31:14.307Z,17.80
2018-06-07T04:33:42.714Z,18.01
2018-06-07T04:36:11.084Z,18.20
2018-06-07T04:38:39.486Z,18.33
2018-06-07T04:41:07.862Z,18.47
2018-06-07T04:43:36.259Z,18.57
2018-06-07T04:46:04.649Z,18.71
2018-06-07T04:48:33.051Z,18.75
2018-06-07T04:51:01.426Z,18.62
2018-06-07T04:53:29.827Z,18.44
2018-06-07T04:55:58.207Z,18.22
2018-06-07T04:58:26.608Z,18.02
2018-06-07T05:00:55.019Z,17.83
2018-06-07T05:03:23.523Z,17.67
2018-06-07T05:05:51.890Z,17.62
2018-06-07T05:08:20.267Z,17.72
2018-06-07T05:10:48.667Z,17.84
2018-06-07T05:13:17.140Z,17.99
2018-06-07T05:15:45.534Z,18.11
2018-06-07T05:18:13.906Z,18.13
2018-06-07T05:20:42.306Z,18.12
2018-06-07T05:23:10.679Z,18.09
2018-06-07T05:25:39.078Z,18.08
2018-06-07T05:28:07.459Z,18.04
2018-06-07T05:30:35.859Z,18.00
2018-06-07T05:33:04.226Z,17.96
2018-06-07T05:35:32.622Z,17.93
2018-06-07T05:38:01.004Z,17.94
2018-06-07T05:40:29.402Z,17.94
2018-06-07T05:42:57.775Z,17.92
2018-06-07T05:45:26.183Z,17.96
2018-06-07T05:47:54.568Z,17.99
2018-06-07T05:50:23.578Z,18.04
2018-06-07T05:52:51.979Z,18.13
2018-06-07T05:55:20.350Z,18.22
2018-06-07T05:57:48.752Z,18.28
2018-06-07T06:00:17.149Z,18.36
2018-06-07T06:02:45.572Z,18.46
2018-06-07T06:05:13.946Z,18.54
2018-06-07T06:07:42.346Z,18.64
2018-06-07T06:10:10.715Z,18.71
2018-06-07T06:12:39.120Z,18.82
2018-06-07T06:15:07.487Z,18.90
2018-06-07T06:17:35.888Z,18.97
2018-06-07T06:20:04.289Z,19.06
2018-06-07T06:22:32.707Z,19.15
2018-06-07T06:25:01.079Z,19.25
2018-06-07T06:27:29.466Z,19.31
2018-06-07T06:29:57.857Z,19.38
2018-06-07T06:32:26.232Z,19.48
2018-06-07T06:34:54.626Z,19.58
2018-06-07T06:37:38.638Z,19.67
2018-06-07T06:40:07.035Z,19.76
2018-06-07T06:42:35.403Z,19.82
2018-06-07T06:45:03.812Z,19.88
2018-06-07T06:47:32.247Z,19.95
2018-06-07T06:50:00.728Z,20.00
2018-06-07T06:52:29.110Z,20.05
2018-06-07T06:54:57.592Z,20.10
2018-06-07T06:57:25.969Z,20.13
2018-06-07T06:59:54.386Z,20.21
2018-06-07T07:02:22.758Z,20.31
2018-06-07T07:04:51.151Z,20.39
2018-06-07T07:07:19.519Z,20.44
2018-06-07T07:09:47.931Z,20.47
2018-06-07T07:12:16.303Z,20.52
2018-06-07T07:14:44.674Z,20.57
2018-06-07T07:17:13.067Z,20.62
2018-06-07T07:19:41.444Z,20.66
2018-06-07T07:22:09.834Z,20.75
2018-06-07T07:24:38.202Z,20.80
2018-06-07T07:27:06.595Z,20.86
2018-06-07T07:29:34.972Z,20.93
2018-06-07T07:32:03.378Z,21.01
2018-06-07T07:34:31.789Z,21.09
2018-06-07T07:37:00.183Z,21.18
2018-06-07T07:39:28.624Z,21.26
2018-06-07T07:41:57.015Z,21.33
2018-06-07T07:44:25.391Z,21.40
2018-06-07T07:46:53.786Z,21.45
2018-06-07T07:49:22.159Z,21.51
2018-06-07T07:51:50.573Z,21.57
2018-06-07T07:54:18.950Z,21.65
2018-06-07T07:56:47.327Z,21.73
2018-06-07T07:59:15.726Z,21.81
2018-06-07T08:01:44.114Z,21.88
2018-06-07T08:04:12.503Z,21.95
2018-06-07T08:06:40.883Z,22.04
2018-06-07T08:09:09.288Z,22.12
2018-06-07T08:11:37.710Z,22.20
2018-06-07T08:14:06.085Z,22.27
2018-06-07T08:16:34.467Z,22.33
2018-06-07T08:19:02.866Z,22.41
2018-06-07T08:21:31.237Z,22.50
2018-06-07T08:23:59.638Z,22.55
2018-06-07T08:26:28.012Z,22.57
2018-06-07T08:28:56.415Z,22.63
2018-06-07T08:31:24.793Z,22.69
2018-06-07T08:33:53.183Z,22.75
2018-06-07T08:36:21.555Z,22.80
2018-06-07T08:38:49.971Z,22.85
2018-06-07T08:41:18.340Z,22.89
2018-06-07T08:43:46.724Z,22.92
2018-06-07T08:46:15.118Z,22.94
2018-06-07T08:48:43.493Z,22.96
2018-06-07T08:51:11.971Z,23.01
2018-06-07T08:53:40.333Z,23.05
2018-06-07T08:56:08.727Z,23.10
2018-06-07T08:58:37.103Z,23.15
2018-06-07T09:01:05.532Z,23.21
2018-06-07T09:03:33.910Z,23.27
2018-06-07T09:06:02.305Z,23.35
2018-06-07T09:08:30.956Z,23.43
2018-06-07T09:10:59.354Z,23.47
2018-06-07T09:13:27.726Z,23.53
2018-06-07T09:15:56.122Z,23.54
2018-06-07T09:18:24.490Z,23.55
2018-06-07T09:20:52.888Z,23.57
2018-06-07T09:23:21.258Z,23.59
2018-06-07T09:25:49.657Z,23.64
2018-06-07T09:28:18.023Z,23.71
2018-06-07T09:30:46.443Z,23.76
2018-06-07T09:33:14.842Z,23.83
2018-06-07T09:35:43.215Z,23.92
2018-06-07T09:38:11.607Z,24.03
2018-06-07T09:40:39.970Z,24.13
2018-06-07T09:43:08.367Z,24.22
2018-06-07T09:45:36.752Z,24.28
2018-06-07T09:48:05.439Z,24.36
2018-06-07T09:50:33.855Z,24.41
2018-06-07T09:53:02.385Z,24.46
2018-06-07T09:55:30.658Z,24.50
2018-06-07T09:57:59.046Z,24.53
2018-06-07T10:00:28.206Z,24.59
2018-06-07T10:02:56.634Z,24.61
2018-06-07T10:05:25.007Z,24.69
2018-06-07T10:07:53.398Z,24.76
2018-06-07T10:10:21.763Z,24.83
2018-06-07T10:12:50.184Z,24.88
2018-06-07T10:15:18.563Z,24.88
2018-06-07T10:17:46.950Z,24.89
2018-06-07T10:20:15.350Z,24.92
2018-06-07T10:22:43.725Z,24.95
2018-06-07T10:25:12.124Z,25.01
2018-06-07T10:27:40.499Z,25.10
2018-06-07T10:30:08.891Z,25.15
2018-06-07T10:32:37.259Z,25.18
2018-06-07T10:35:05.701Z,25.25
2018-06-07T10:37:34.070Z,25.32
2018-06-07T10:40:02.467Z,25.37
2018-06-07T10:42:30.846Z,25.43
2018-06-07T10:44:59.246Z,25.50
2018-06-07T10:47:27.657Z,25.57
2018-06-07T10:49:56.070Z,25.62
2018-06-07T10:52:24.447Z,25.64
2018-06-07T10:54:52.827Z,25.64
2018-06-07T10:57:21.238Z,25.68
2018-06-07T10:59:49.704Z,25.69
2018-06-07T11:02:18.103Z,25.70
2018-06-07T11:04:46.489Z,25.74
2018-06-07T11:07:14.998Z,25.81
2018-06-07T11:09:43.366Z,25.87
2018-06-07T11:12:11.783Z,25.96
2018-06-07T11:14:40.221Z,26.04
2018-06-07T11:17:08.586Z,26.09
2018-06-07T11:19:36.970Z,26.12
2018-06-07T11:22:05.499Z,26.17
2018-06-07T11:24:33.874Z,26.23
2018-06-07T11:27:02.252Z,26.29
2018-06-07T11:29:30.666Z,26.32
2018-06-07T11:31:59.043Z,26.32
2018-06-07T11:34:27.446Z,26.33
2018-06-07T11:36:55.827Z,26.35
2018-06-07T11:39:24.220Z,26.37
2018-06-07T11:41:52.604Z,26.40
2018-06-07T11:44:20.994Z,26.43
2018-06-07T11:46:49.383Z,26.50
2018-06-07T11:49:17.783Z,26.57
2018-06-07T11:51:46.172Z,26.66
2018-06-07T11:54:14.594Z,26.72
2018-06-07T11:56:42.974Z,26.79
2018-06-07T11:59:11.349Z,26.83
2018-06-07T12:01:39.836Z,26.88
2018-06-07T12:04:08.186Z,26.92
2018-06-07T12:06:36.574Z,26.93
2018-06-07T12:09:07.142Z,26.97
2018-06-07T12:11:35.624Z,27.01
2018-06-07T12:14:04.091Z,27.03
2018-06-07T12:16:32.491Z,27.05
2018-06-07T12:19:00.866Z,27.09
2018-06-07T12:21:29.258Z,27.10
2018-06-07T12:23:57.672Z,27.12
2018-06-07T12:26:26.076Z,27.16
2018-06-07T12:28:54.455Z,27.19
2018-06-07T12:31:22.855Z,27.22
2018-06-07T12:33:51.240Z,27.24
2018-06-07T12:36:19.648Z,27.29
2018-06-07T12:38:48.026Z,27.34
2018-06-07T12:41:16.654Z,27.38
2018-06-07T12:43:45.061Z,27.43
2018-06-07T12:46:13.443Z,27.48
2018-06-07T12:48:43.567Z,27.55
2018-06-07T12:51:11.995Z,27.64
2018-06-07T12:53:40.462Z,27.71
2018-06-07T12:56:08.842Z,27.76
2018-06-07T12:58:37.242Z,27.80
2018-06-07T13:01:05.655Z,27.83
2018-06-07T13:03:34.052Z,27.86
2018-06-07T13:06:02.426Z,27.88
2018-06-07T13:08:31.083Z,27.90
2018-06-07T13:10:59.465Z,27.92
2018-06-07T13:13:27.862Z,27.93
2018-06-07T13:15:56.226Z,27.95
2018-06-07T13:18:24.623Z,27.97
2018-06-07T13:20:52.999Z,28.05
2018-06-07T13:23:21.395Z,28.09
2018-06-07T13:25:49.776Z,28.12
2018-06-07T13:28:18.179Z,28.13
2018-06-07T13:30:46.555Z,28.16
2018-06-07T13:33:14.962Z,28.20
2018-06-07T13:35:43.338Z,28.22
2018-06-07T13:38:11.758Z,28.20
2018-06-07T13:40:40.130Z,28.19
2018-06-07T13:43:08.503Z,28.19
2018-06-07T13:45:36.897Z,28.22
2018-06-07T13:48:05.276Z,28.26
2018-06-07T13:50:33.704Z,28.32
2018-06-07T13:53:02.079Z,28.35
2018-06-07T13:55:30.478Z,28.41
2018-06-07T13:57:58.891Z,28.47
2018-06-07T14:00:27.306Z,28.48
2018-06-07T14:02:55.675Z,28.50
2018-06-07T14:05:24.066Z,28.48
2018-06-07T14:07:52.438Z,28.50
2018-06-07T14:10:20.831Z,28.50
2018-06-07T14:12:49.231Z,28.51
2018-06-07T14:15:17.623Z,28.51
2018-06-07T14:17:45.998Z,28.52
2018-06-07T14:20:14.391Z,28.55
2018-06-07T14:22:42.766Z,28.63
2018-06-07T14:25:11.158Z,28.70
2018-06-07T14:27:40.681Z,28.75
2018-06-07T14:30:09.828Z,28.78
2018-06-07T14:32:39.248Z,28.78
2018-06-07T14:35:08.530Z,28.77
2018-06-07T14:37:37.861Z,28.77
2018-06-07T14:40:06.448Z,28.81
2018-06-07T14:42:34.842Z,28.85
2018-06-07T14:45:03.215Z,28.92
2018-06-07T14:47:31.615Z,28.95
2018-06-07T14:49:59.982Z,28.96
2018-06-07T14:52:28.382Z,28.99
2018-06-07T14:54:56.755Z,28.99
2018-06-07T14:57:25.152Z,28.99
2018-06-07T14:59:53.575Z,28.97
2018-06-07T15:02:22.013Z,28.99
2018-06-07T15:04:50.387Z,29.00
2018-06-07T15:07:18.788Z,29.03
2018-06-07T15:09:47.159Z,29.04
2018-06-07T15:12:15.562Z,29.05
2018-06-07T15:14:43.939Z,29.05
2018-06-07T15:17:12.354Z,29.03
2018-06-07T15:19:40.731Z,29.00
2018-06-07T15:22:09.132Z,29.01
2018-06-07T15:24:37.498Z,29.00
2018-06-07T15:27:05.891Z,29.01
2018-06-07T15:29:34.259Z,29.03
2018-06-07T15:32:02.627Z,29.05
2018-06-07T15:34:31.018Z,29.03
2018-06-07T15:36:59.388Z,29.02
2018-06-07T15:39:27.782Z,28.99
2018-06-07T15:41:56.146Z,28.99
2018-06-07T15:44:24.566Z,28.95
2018-06-07T15:46:52.942Z,28.92
2018-06-07T15:49:21.339Z,28.93
2018-06-07T15:51:49.715Z,28.95
2018-06-07T15:54:18.117Z,28.98
2018-06-07T15:56:46.514Z,29.01
2018-06-07T15:59:14.922Z,29.04
2018-06-07T16:01:43.325Z,29.05
2018-06-07T16:04:11.726Z,29.03
2018-06-07T16:06:40.093Z,29.03
2018-06-07T16:09:09.042Z,29.01
2018-06-07T16:11:37.418Z,28.98
2018-06-07T16:14:05.808Z,28.97
2018-06-07T16:16:34.203Z,28.97
2018-06-07T16:19:02.578Z,28.96
2018-06-07T16:21:30.983Z,28.94
2018-06-07T16:23:59.354Z,28.98
2018-06-07T16:26:27.751Z,29.15
2018-06-07T16:28:56.140Z,29.42
2018-06-07T16:31:24.538Z,29.70
2018-06-07T16:33:52.906Z,30.03
2018-06-07T16:36:21.299Z,30.35
2018-06-07T16:38:49.675Z,30.64
2018-06-07T16:41:18.078Z,30.89
2018-06-07T16:43:46.454Z,31.08
2018-06-07T16:46:14.854Z,31.28
2018-06-07T16:48:43.263Z,31.49
2018-06-07T16:51:11.663Z,31.73
2018-06-07T16:53:40.367Z,31.91
2018-06-07T16:56:08.763Z,32.06
2018-06-07T16:58:37.141Z,32.22
2018-06-07T17:01:05.586Z,32.35
2018-06-07T17:03:33.966Z,32.47
2018-06-07T17:06:02.342Z,32.59
2018-06-07T17:08:30.743Z,32.66
2018-06-07T17:10:59.150Z,32.75
2018-06-07T17:13:27.560Z,32.76
2018-06-07T17:15:55.936Z,32.77
2018-06-07T17:18:24.339Z,32.76
2018-06-07T17:20:53.410Z,32.76
2018-06-07T17:23:21.812Z,32.77
2018-06-07T17:25:50.199Z,32.74
2018-06-07T17:28:18.603Z,32.75
2018-06-07T17:30:47.041Z,32.73
2018-06-07T17:33:15.434Z,32.67
2018-06-07T17:35:43.806Z,32.58
2018-06-07T17:38:12.202Z,32.47
2018-06-07T17:40:40.579Z,32.34
2018-06-07T17:43:08.994Z,32.22
2018-06-07T17:45:37.371Z,32.13
2018-06-07T17:48:05.939Z,32.08
2018-06-07T17:50:34.352Z,31.89
2018-06-07T17:53:02.727Z,31.67
2018-06-07T17:55:31.127Z,31.34
2018-06-07T17:57:59.491Z,30.95
2018-06-07T18:00:27.910Z,30.51
2018-06-07T18:02:56.290Z,30.02
2018-06-07T18:05:24.687Z,29.68
2018-06-07T18:07:53.059Z,29.28
2018-06-07T18:10:21.458Z,28.92
2018-06-07T18:12:49.871Z,28.62
2018-06-07T18:15:18.611Z,28.37
2018-06-07T18:17:46.982Z,28.11
2018-06-07T18:20:15.687Z,27.87
2018-06-07T18:22:44.076Z,27.65
2018-06-07T18:25:12.474Z,27.44
2018-06-07T18:27:40.852Z,27.25
2018-06-07T18:30:09.255Z,27.13
2018-06-07T18:32:37.622Z,27.00
2018-06-07T18:35:06.047Z,26.86
2018-06-07T18:37:34.422Z,26.74
2018-06-07T18:40:02.858Z,26.62
2018-06-07T18:42:31.223Z,26.54
2018-06-07T18:44:59.603Z,26.45
2018-06-07T18:47:27.990Z,26.35
2018-06-07T18:49:56.401Z,26.26
2018-06-07T18:52:24.782Z,26.16
2018-06-07T18:54:53.146Z,26.06
2018-06-07T18:57:21.546Z,25.94
2018-06-07T18:59:49.918Z,25.81
2018-06-07T19:02:18.330Z,25.71
2018-06-07T19:04:46.703Z,25.59
2018-06-07T19:07:20.610Z,25.49
2018-06-07T19:09:54.225Z,25.35
2018-06-07T19:12:22.614Z,25.21
2018-06-07T19:14:56.345Z,25.09
2018-06-07T19:17:24.732Z,24.97
2018-06-07T19:19:58.403Z,24.84
2018-06-07T19:22:26.794Z,24.71
2018-06-07T19:25:00.487Z,24.58
2018-06-07T19:27:29.466Z,24.47
2018-06-07T19:29:57.870Z,24.34
2018-06-07T19:32:31.614Z,24.23
2018-06-07T19:35:05.406Z,24.09
2018-06-07T19:37:33.807Z,23.97
2018-06-07T19:40:07.595Z,23.88
2018-06-07T19:42:35.995Z,23.80
2018-06-07T19:45:04.391Z,23.72
2018-06-07T19:47:32.786Z,23.60
2018-06-07T19:50:01.162Z,23.51
2018-06-07T19:52:29.605Z,23.44
2018-06-07T19:54:58.091Z,23.39
2018-06-07T19:57:26.516Z,23.33
2018-06-07T19:59:54.916Z,23.25
2018-06-07T20:02:23.355Z,23.19
2018-06-07T20:04:51.743Z,23.13
2018-06-07T20:07:20.124Z,23.07
2018-06-07T20:09:48.519Z,23.03
2018-06-07T20:12:17.869Z,22.97
2018-06-07T20:14:46.270Z,22.94
2018-06-07T20:17:14.638Z,22.89
2018-06-07T20:19:44.050Z,22.81
2018-06-07T20:22:12.510Z,22.73
2018-06-07T20:24:40.894Z,22.64
2018-06-07T20:27:09.258Z,22.57
2018-06-07T20:29:37.626Z,22.50
2018-06-07T20:32:06.078Z,22.41
2018-06-07T20:34:34.447Z,22.33
2018-06-07T20:37:02.839Z,22.28
2018-06-07T20:39:31.234Z,22.21
2018-06-07T20:41:59.631Z,22.15
2018-06-07T20:44:28.015Z,22.09
2018-06-07T20:46:56.410Z,22.03
2018-06-07T20:49:24.781Z,21.95
2018-06-07T20:51:53.170Z,21.88
2018-06-07T20:54:21.543Z,21.83
2018-06-07T20:56:49.959Z,21.75
2018-06-07T20:59:18.327Z,21.70
2018-06-07T21:01:46.743Z,21.64
2018-06-07T21:04:15.111Z,21.56
2018-06-07T21:06:43.506Z,21.50
2018-06-07T21:09:12.384Z,21.41
2018-06-07T21:11:41.542Z,21.35
2018-06-07T21:14:09.907Z,21.30
2018-06-07T21:16:38.315Z,21.24
2018-06-07T21:19:06.694Z,21.17
2018-06-07T21:21:35.189Z,21.12
2018-06-07T21:24:03.562Z,21.06
2018-06-07T21:26:31.930Z,21.00
2018-06-07T21:29:00.323Z,20.93
2018-06-07T21:31:28.696Z,20.90
2018-06-07T21:33:57.088Z,20.87
2018-06-07T21:36:25.466Z,20.85
2018-06-07T21:38:53.874Z,20.81
2018-06-07T21:41:22.245Z,20.75
2018-06-07T21:43:50.639Z,20.70
2018-06-07T21:46:19.004Z,20.65
2018-06-07T21:48:47.389Z,20.62
2018-06-07T21:51:15.754Z,20.61
2018-06-07T21:53:44.114Z,20.60
2018-06-07T21:56:12.560Z,20.57
2018-06-07T21:58:40.923Z,20.55
2018-06-07T22:01:09.344Z,20.50
2018-06-07T22:03:37.715Z,20.45
2018-06-07T22:06:06.114Z,20.37
2018-06-07T22:08:34.795Z,20.32
2018-06-07T22:11:03.182Z,20.27
2018-06-07T22:13:31.550Z,20.22
2018-06-07T22:15:59.943Z,20.18
2018-06-07T22:18:28.308Z,20.14
2018-06-07T22:20:56.701Z,20.12
2018-06-07T22:23:25.065Z,20.10
2018-06-07T22:25:53.454Z,20.07
2018-06-07T22:28:21.823Z,20.02
2018-06-07T22:30:50.219Z,19.96
2018-06-07T22:33:18.592Z,19.91
2018-06-07T22:35:47.011Z,19.84
2018-06-07T22:38:15.382Z,19.79
2018-06-07T22:40:43.746Z,19.74
2018-06-07T22:43:12.143Z,19.70
2018-06-07T22:45:40.506Z,19.67
2018-06-07T22:48:08.902Z,19.61
2018-06-07T22:50:37.339Z,19.59
2018-06-07T22:53:05.739Z,19.56
2018-06-07T22:55:34.115Z,19.53
2018-06-07T22:58:02.506Z,19.50
2018-06-07T23:00:30.906Z,19.45
2018-06-07T23:02:59.310Z,19.42
2018-06-07T23:05:27.808Z,19.40
2018-06-07T23:07:56.202Z,19.37
2018-06-07T23:10:24.579Z,19.34
2018-06-07T23:12:52.980Z,19.31
2018-06-07T23:15:21.347Z,19.29
2018-06-07T23:17:49.785Z,19.26
2018-06-07T23:20:18.143Z,19.23
2018-06-07T23:22:46.530Z,19.20
2018-06-07T23:25:14.919Z,19.17
2018-06-07T23:27:43.355Z,19.15
2018-06-07T23:30:11.726Z,19.12
2018-06-07T23:32:40.090Z,19.09
2018-06-07T23:35:08.487Z,19.05
2018-06-07T23:37:36.859Z,19.02
2018-06-07T23:40:05.251Z,18.98
2018-06-07T23:42:33.648Z,18.94
2018-06-07T23:45:02.142Z,18.88
2018-06-07T23:47:31.534Z,18.81
2018-06-07T23:49:59.927Z,18.72
2018-06-07T23:52:28.302Z,18.66
2018-06-07T23:54:56.689Z,18.64
2018-06-07T23:57:25.072Z,18.60
2018-06-07T23:59:53.471Z,18.56
